sensor_id;sensor_type;location;lat;lon;timestamp;temperature;humidity
3678;DHT22;1855;50.934;6.958;2023-10-19T00:00:20;10.60;99.90
3678;DHT22;1855;50.934;6.958;2023-10-19T00:02:49;10.60;99.90
3678;DHT22;1855;50.934;6.958;2023-10-19T00:05:17;10.60;99.90
3678;DHT22;1855;50.934;6.958;2023-10-19T00:07:45;10.60;99.90
3678;DHT22;1855;50.934;6.958;2023-10-19T00:10:12;10.60;99.90
3678;DHT22;1855;50.934;6.958;2023-10-19T00:12:41;10.60;99.90
3678;DHT22;1855;50.934;6.958;2023-10-19T00:15:10;10.60;99.90
3678;DHT22;1855;50.934;6.958;2023-10-19T00:17:37;10.70;99.90
3678;DHT22;1855;50.934;6.958;2023-10-19T00:20:05;10.70;99.90
3678;DHT22;1855;50.934;6.958;2023-10-19T00:22:56;10.80;99.90
3678;DHT22;1855;50.934;6.958;2023-10-19T00:25:23;10.80;99.90
3678;DHT22;1855;50.934;6.958;2023-10-19T00:27:50;10.80;99.90
3678;DHT22;1855;50.934;6.958;2023-10-19T00:30:17;10.90;99.90
3678;DHT22;1855;50.934;6.958;2023-10-19T00:32:49;10.90;99.90
3678;DHT22;1855;50.934;6.958;2023-10-19T00:35:16;10.90;99.90
3678;DHT22;1855;50.934;6.958;2023-10-19T00:37:56;10.90;99.90
3678;DHT22;1855;50.934;6.958;2023-10-19T00:40:42;10.90;99.90
3678;DHT22;1855;50.934;6.958;2023-10-19T00:43:13;11.00;99.90
3678;DHT22;1855;50.934;6.958;2023-10-19T00:45:43;11.00;99.90
3678;DHT22;1855;50.934;6.958;2023-10-19T00:48:12;11.10;99.90
3678;DHT22;1855;50.934;6.958;2023-10-19T00:50:39;11.10;99.90
3678;DHT22;1855;50.934;6.958;2023-10-19T00:53:09;11.10;99.90
3678;DHT22;1855;50.934;6.958;2023-10-19T00:55:38;11.10;99.90
3678;DHT22;1855;50.934;6.958;2023-10-19T00:58:07;11.10;99.90
3678;DHT22;1855;50.934;6.958;2023-10-19T01:00:37;11.20;99.90
3678;DHT22;1855;50.934;6.958;2023-10-19T01:03:11;11.10;99.90
3678;DHT22;1855;50.934;6.958;2023-10-19T01:05:43;11.10;99.90
3678;DHT22;1855;50.934;6.958;2023-10-19T01:08:15;11.10;99.90
3678;DHT22;1855;50.934;6.958;2023-10-19T01:10:50;11.10;99.90
3678;DHT22;1855;50.934;6.958;2023-10-19T01:13:18;11.20;99.90
3678;DHT22;1855;50.934;6.958;2023-10-19T01:15:52;11.20;99.90
3678;DHT22;1855;50.934;6.958;2023-10-19T01:18:19;11.20;99.90
3678;DHT22;1855;50.934;6.958;2023-10-19T01:20:47;11.20;99.90
3678;DHT22;1855;50.934;6.958;2023-10-19T01:23:18;11.30;99.90
3678;DHT22;1855;50.934;6.958;2023-10-19T01:25:52;11.30;99.90
3678;DHT22;1855;50.934;6.958;2023-10-19T01:28:27;11.40;99.90
3678;DHT22;1855;50.934;6.958;2023-10-19T01:31:07;11.40;99.90
3678;DHT22;1855;50.934;6.958;2023-10-19T01:33:34;11.40;99.90
3678;DHT22;1855;50.934;6.958;2023-10-19T01:36:01;11.40;99.90
3678;DHT22;1855;50.934;6.958;2023-10-19T01:38:38;11.40;99.90
3678;DHT22;1855;50.934;6.958;2023-10-19T01:41:06;11.40;99.90
3678;DHT22;1855;50.934;6.958;2023-10-19T01:43:39;11.50;99.90
3678;DHT22;1855;50.934;6.958;2023-10-19T01:46:06;11.50;99.90
3678;DHT22;1855;50.934;6.958;2023-10-19T01:48:37;11.50;99.90
3678;DHT22;1855;50.934;6.958;2023-10-19T01:51:07;11.50;99.90
3678;DHT22;1855;50.934;6.958;2023-10-19T01:53:38;11.60;99.90
3678;DHT22;1855;50.934;6.958;2023-10-19T01:56:05;11.60;99.90
3678;DHT22;1855;50.934;6.958;2023-10-19T01:58:35;11.60;99.90
3678;DHT22;1855;50.934;6.958;2023-10-19T02:01:02;11.60;99.90
3678;DHT22;1855;50.934;6.958;2023-10-19T02:03:33;11.70;99.90
3678;DHT22;1855;50.934;6.958;2023-10-19T02:06:01;11.70;99.90
3678;DHT22;1855;50.934;6.958;2023-10-19T02:08:37;11.70;99.90
3678;DHT22;1855;50.934;6.958;2023-10-19T02:11:04;11.70;99.90
3678;DHT22;1855;50.934;6.958;2023-10-19T02:13:39;11.70;99.90
3678;DHT22;1855;50.934;6.958;2023-10-19T02:16:05;11.70;99.90
3678;DHT22;1855;50.934;6.958;2023-10-19T02:18:33;11.70;99.90
3678;DHT22;1855;50.934;6.958;2023-10-19T02:21:00;11.70;99.90
3678;DHT22;1855;50.934;6.958;2023-10-19T02:23:32;11.70;99.90
3678;DHT22;1855;50.934;6.958;2023-10-19T02:26:01;11.60;99.90
3678;DHT22;1855;50.934;6.958;2023-10-19T02:28:29;11.60;99.90
3678;DHT22;1855;50.934;6.958;2023-10-19T02:30:57;11.60;99.90
3678;DHT22;1855;50.934;6.958;2023-10-19T02:33:37;11.60;99.90
3678;DHT22;1855;50.934;6.958;2023-10-19T02:36:03;11.60;99.90
3678;DHT22;1855;50.934;6.958;2023-10-19T02:38:30;11.60;99.90
3678;DHT22;1855;50.934;6.958;2023-10-19T02:40:58;11.70;99.90
3678;DHT22;1855;50.934;6.958;2023-10-19T02:43:26;11.70;99.90
3678;DHT22;1855;50.934;6.958;2023-10-19T02:45:52;11.70;99.90
3678;DHT22;1855;50.934;6.958;2023-10-19T02:48:20;11.60;99.90
3678;DHT22;1855;50.934;6.958;2023-10-19T02:50:46;11.70;99.90
3678;DHT22;1855;50.934;6.958;2023-10-19T02:53:14;11.70;99.90
3678;DHT22;1855;50.934;6.958;2023-10-19T02:55:40;11.70;99.90
3678;DHT22;1855;50.934;6.958;2023-10-19T02:58:07;11.80;99.90
3678;DHT22;1855;50.934;6.958;2023-10-19T03:00:36;11.80;99.90
3678;DHT22;1855;50.934;6.958;2023-10-19T03:03:05;11.80;99.90
3678;DHT22;1855;50.934;6.958;2023-10-19T03:05:32;11.80;99.90
3678;DHT22;1855;50.934;6.958;2023-10-19T03:08:01;11.80;99.90
3678;DHT22;1855;50.934;6.958;2023-10-19T03:10:31;11.80;99.90
3678;DHT22;1855;50.934;6.958;2023-10-19T03:13:07;11.90;99.90
3678;DHT22;1855;50.934;6.958;2023-10-19T03:15:34;11.90;99.90
3678;DHT22;1855;50.934;6.958;2023-10-19T03:18:05;11.90;99.90
3678;DHT22;1855;50.934;6.958;2023-10-19T03:20:31;11.90;99.90
3678;DHT22;1855;50.934;6.958;2023-10-19T03:22:59;11.90;99.90
3678;DHT22;1855;50.934;6.958;2023-10-19T03:25:26;11.90;99.90
3678;DHT22;1855;50.934;6.958;2023-10-19T03:28:17;11.90;99.90
3678;DHT22;1855;50.934;6.958;2023-10-19T03:30:45;11.90;99.90
3678;DHT22;1855;50.934;6.958;2023-10-19T03:33:12;11.90;99.90
3678;DHT22;1855;50.934;6.958;2023-10-19T03:35:39;11.80;99.90
3678;DHT22;1855;50.934;6.958;2023-10-19T03:38:07;11.80;99.90
3678;DHT22;1855;50.934;6.958;2023-10-19T03:40:40;11.80;99.90
3678;DHT22;1855;50.934;6.958;2023-10-19T03:43:07;11.80;99.90
3678;DHT22;1855;50.934;6.958;2023-10-19T03:45:44;11.90;99.90
3678;DHT22;1855;50.934;6.958;2023-10-19T03:48:18;11.90;99.90
3678;DHT22;1855;50.934;6.958;2023-10-19T03:50:50;11.90;99.90
3678;DHT22;1855;50.934;6.958;2023-10-19T03:53:18;11.90;99.90
3678;DHT22;1855;50.934;6.958;2023-10-19T03:55:46;12.00;99.90
3678;DHT22;1855;50.934;6.958;2023-10-19T03:58:15;12.00;99.90
3678;DHT22;1855;50.934;6.958;2023-10-19T04:00:42;12.00;99.90
3678;DHT22;1855;50.934;6.958;2023-10-19T04:03:11;12.00;99.90
3678;DHT22;1855;50.934;6.958;2023-10-19T04:05:38;12.00;99.90
3678;DHT22;1855;50.934;6.958;2023-10-19T04:08:06;12.10;99.90
3678;DHT22;1855;50.934;6.958;2023-10-19T04:10:38;12.10;99.90
3678;DHT22;1855;50.934;6.958;2023-10-19T04:13:11;12.00;99.90
3678;DHT22;1855;50.934;6.958;2023-10-19T04:15:38;12.00;99.90
3678;DHT22;1855;50.934;6.958;2023-10-19T04:18:05;12.00;99.90
3678;DHT22;1855;50.934;6.958;2023-10-19T04:20:37;11.90;99.90
3678;DHT22;1855;50.934;6.958;2023-10-19T04:23:20;11.90;99.90
3678;DHT22;1855;50.934;6.958;2023-10-19T04:25:47;11.90;99.90
3678;DHT22;1855;50.934;6.958;2023-10-19T04:28:15;12.00;99.90
3678;DHT22;1855;50.934;6.958;2023-10-19T04:30:45;12.00;99.90
3678;DHT22;1855;50.934;6.958;2023-10-19T04:33:13;12.00;99.90
3678;DHT22;1855;50.934;6.958;2023-10-19T04:35:43;12.00;99.90
3678;DHT22;1855;50.934;6.958;2023-10-19T04:38:11;12.10;99.90
3678;DHT22;1855;50.934;6.958;2023-10-19T04:40:38;12.10;99.90
3678;DHT22;1855;50.934;6.958;2023-10-19T04:43:04;12.10;99.90
3678;DHT22;1855;50.934;6.958;2023-10-19T04:45:31;12.10;99.90
3678;DHT22;1855;50.934;6.958;2023-10-19T04:47:58;12.10;99.90
3678;DHT22;1855;50.934;6.958;2023-10-19T04:50:25;12.10;99.90
3678;DHT22;1855;50.934;6.958;2023-10-19T04:52:53;12.10;99.90
3678;DHT22;1855;50.934;6.958;2023-10-19T04:55:20;12.10;99.90
3678;DHT22;1855;50.934;6.958;2023-10-19T04:57:46;12.10;99.90
3678;DHT22;1855;50.934;6.958;2023-10-19T05:00:14;12.20;99.90
3678;DHT22;1855;50.934;6.958;2023-10-19T05:02:42;12.20;99.90
3678;DHT22;1855;50.934;6.958;2023-10-19T05:05:08;12.20;99.90
3678;DHT22;1855;50.934;6.958;2023-10-19T05:07:35;12.20;99.90
3678;DHT22;1855;50.934;6.958;2023-10-19T05:10:04;12.20;99.90
3678;DHT22;1855;50.934;6.958;2023-10-19T05:12:31;12.20;99.90
3678;DHT22;1855;50.934;6.958;2023-10-19T05:14:58;12.30;99.90
3678;DHT22;1855;50.934;6.958;2023-10-19T05:17:25;12.30;99.90
3678;DHT22;1855;50.934;6.958;2023-10-19T05:19:52;12.30;99.90
3678;DHT22;1855;50.934;6.958;2023-10-19T05:22:19;12.30;99.90
3678;DHT22;1855;50.934;6.958;2023-10-19T05:24:47;12.30;99.90
3678;DHT22;1855;50.934;6.958;2023-10-19T05:27:15;12.30;99.90
3678;DHT22;1855;50.934;6.958;2023-10-19T05:29:43;12.40;99.90
3678;DHT22;1855;50.934;6.958;2023-10-19T05:32:10;12.40;99.90
3678;DHT22;1855;50.934;6.958;2023-10-19T05:34:36;12.40;99.90
3678;DHT22;1855;50.934;6.958;2023-10-19T05:37:03;12.40;99.90
3678;DHT22;1855;50.934;6.958;2023-10-19T05:39:31;12.40;99.90
3678;DHT22;1855;50.934;6.958;2023-10-19T05:41:59;12.40;99.90
3678;DHT22;1855;50.934;6.958;2023-10-19T05:44:28;12.40;99.90
3678;DHT22;1855;50.934;6.958;2023-10-19T05:46:55;12.40;99.90
3678;DHT22;1855;50.934;6.958;2023-10-19T05:49:23;12.40;99.90
3678;DHT22;1855;50.934;6.958;2023-10-19T05:51:50;12.50;99.90
3678;DHT22;1855;50.934;6.958;2023-10-19T05:54:17;12.50;99.90
3678;DHT22;1855;50.934;6.958;2023-10-19T05:56:44;12.40;99.90
3678;DHT22;1855;50.934;6.958;2023-10-19T05:59:12;12.50;99.90
3678;DHT22;1855;50.934;6.958;2023-10-19T06:01:40;12.40;99.90
3678;DHT22;1855;50.934;6.958;2023-10-19T06:04:07;12.40;99.90
3678;DHT22;1855;50.934;6.958;2023-10-19T06:06:33;12.40;99.90
3678;DHT22;1855;50.934;6.958;2023-10-19T06:09:01;12.50;99.90
3678;DHT22;1855;50.934;6.958;2023-10-19T06:11:30;12.40;99.90
3678;DHT22;1855;50.934;6.958;2023-10-19T06:13:58;12.50;99.90
3678;DHT22;1855;50.934;6.958;2023-10-19T06:16:25;12.50;99.90
3678;DHT22;1855;50.934;6.958;2023-10-19T06:18:54;12.50;99.90
3678;DHT22;1855;50.934;6.958;2023-10-19T06:21:21;12.50;99.90
3678;DHT22;1855;50.934;6.958;2023-10-19T06:23:49;12.50;99.90
3678;DHT22;1855;50.934;6.958;2023-10-19T06:26:16;12.50;99.90
3678;DHT22;1855;50.934;6.958;2023-10-19T06:28:43;12.60;99.90
3678;DHT22;1855;50.934;6.958;2023-10-19T06:31:09;12.60;99.90
3678;DHT22;1855;50.934;6.958;2023-10-19T06:33:36;12.60;99.90
3678;DHT22;1855;50.934;6.958;2023-10-19T06:36:08;12.60;99.90
3678;DHT22;1855;50.934;6.958;2023-10-19T06:38:35;12.70;99.90
3678;DHT22;1855;50.934;6.958;2023-10-19T06:41:10;12.70;99.90
3678;DHT22;1855;50.934;6.958;2023-10-19T06:43:37;12.70;99.90
3678;DHT22;1855;50.934;6.958;2023-10-19T06:46:04;12.70;99.90
3678;DHT22;1855;50.934;6.958;2023-10-19T06:48:31;12.70;99.90
3678;DHT22;1855;50.934;6.958;2023-10-19T06:50:58;12.80;99.90
3678;DHT22;1855;50.934;6.958;2023-10-19T06:53:27;12.80;99.90
3678;DHT22;1855;50.934;6.958;2023-10-19T06:55:54;12.80;99.90
3678;DHT22;1855;50.934;6.958;2023-10-19T06:58:21;12.80;99.90
3678;DHT22;1855;50.934;6.958;2023-10-19T07:00:51;12.90;99.90
3678;DHT22;1855;50.934;6.958;2023-10-19T07:03:22;12.90;99.90
3678;DHT22;1855;50.934;6.958;2023-10-19T07:05:51;12.90;99.90
3678;DHT22;1855;50.934;6.958;2023-10-19T07:08:18;12.90;99.90
3678;DHT22;1855;50.934;6.958;2023-10-19T07:10:48;12.90;99.90
3678;DHT22;1855;50.934;6.958;2023-10-19T07:13:15;12.90;99.90
3678;DHT22;1855;50.934;6.958;2023-10-19T07:15:44;13.00;99.90
3678;DHT22;1855;50.934;6.958;2023-10-19T07:18:11;13.00;99.90
3678;DHT22;1855;50.934;6.958;2023-10-19T07:20:39;13.00;99.90
3678;DHT22;1855;50.934;6.958;2023-10-19T07:23:08;13.10;99.90
3678;DHT22;1855;50.934;6.958;2023-10-19T07:25:44;13.10;99.90
3678;DHT22;1855;50.934;6.958;2023-10-19T07:28:15;13.10;99.90
3678;DHT22;1855;50.934;6.958;2023-10-19T07:30:42;13.20;99.90
3678;DHT22;1855;50.934;6.958;2023-10-19T07:33:09;13.20;99.90
3678;DHT22;1855;50.934;6.958;2023-10-19T07:35:37;13.20;99.90
3678;DHT22;1855;50.934;6.958;2023-10-19T07:38:04;13.20;99.90
3678;DHT22;1855;50.934;6.958;2023-10-19T07:40:33;13.30;99.90
3678;DHT22;1855;50.934;6.958;2023-10-19T07:43:00;13.30;99.90
3678;DHT22;1855;50.934;6.958;2023-10-19T07:45:28;13.30;99.90
3678;DHT22;1855;50.934;6.958;2023-10-19T07:47:57;13.40;99.90
3678;DHT22;1855;50.934;6.958;2023-10-19T07:50:31;13.40;99.90
3678;DHT22;1855;50.934;6.958;2023-10-19T07:52:58;13.40;99.90
3678;DHT22;1855;50.934;6.958;2023-10-19T07:55:25;13.50;99.90
3678;DHT22;1855;50.934;6.958;2023-10-19T07:57:52;13.50;99.90
3678;DHT22;1855;50.934;6.958;2023-10-19T08:00:20;13.60;99.90
3678;DHT22;1855;50.934;6.958;2023-10-19T08:02:51;13.60;99.90
3678;DHT22;1855;50.934;6.958;2023-10-19T08:05:19;13.70;99.90
3678;DHT22;1855;50.934;6.958;2023-10-19T08:07:47;13.70;99.90
3678;DHT22;1855;50.934;6.958;2023-10-19T08:10:14;13.70;99.90
3678;DHT22;1855;50.934;6.958;2023-10-19T08:12:42;13.70;99.90
3678;DHT22;1855;50.934;6.958;2023-10-19T08:15:11;13.80;99.90
3678;DHT22;1855;50.934;6.958;2023-10-19T08:17:39;13.80;99.90
3678;DHT22;1855;50.934;6.958;2023-10-19T08:20:08;13.80;99.90
3678;DHT22;1855;50.934;6.958;2023-10-19T08:22:41;13.90;99.90
3678;DHT22;1855;50.934;6.958;2023-10-19T08:25:09;14.00;99.90
3678;DHT22;1855;50.934;6.958;2023-10-19T08:27:38;14.10;99.90
3678;DHT22;1855;50.934;6.958;2023-10-19T08:30:06;14.20;99.90
3678;DHT22;1855;50.934;6.958;2023-10-19T08:32:34;14.20;99.90
3678;DHT22;1855;50.934;6.958;2023-10-19T08:35:01;14.30;99.90
3678;DHT22;1855;50.934;6.958;2023-10-19T08:37:29;14.40;99.90
3678;DHT22;1855;50.934;6.958;2023-10-19T08:39:56;14.50;99.90
3678;DHT22;1855;50.934;6.958;2023-10-19T08:42:24;14.60;99.90
3678;DHT22;1855;50.934;6.958;2023-10-19T08:44:51;14.80;99.90
3678;DHT22;1855;50.934;6.958;2023-10-19T08:47:18;15.20;99.90
3678;DHT22;1855;50.934;6.958;2023-10-19T08:49:45;15.60;99.90
3678;DHT22;1855;50.934;6.958;2023-10-19T08:52:12;16.10;99.90
3678;DHT22;1855;50.934;6.958;2023-10-19T08:54:41;16.40;99.90
3678;DHT22;1855;50.934;6.958;2023-10-19T08:57:09;16.60;99.90
3678;DHT22;1855;50.934;6.958;2023-10-19T08:59:36;16.80;99.90
3678;DHT22;1855;50.934;6.958;2023-10-19T09:02:03;17.00;99.90
3678;DHT22;1855;50.934;6.958;2023-10-19T09:04:32;17.20;99.90
3678;DHT22;1855;50.934;6.958;2023-10-19T09:06:59;17.30;99.90
3678;DHT22;1855;50.934;6.958;2023-10-19T09:09:32;17.40;99.90
3678;DHT22;1855;50.934;6.958;2023-10-19T09:12:00;17.60;99.90
3678;DHT22;1855;50.934;6.958;2023-10-19T09:14:31;17.80;99.90
3678;DHT22;1855;50.934;6.958;2023-10-19T09:16:59;17.90;99.90
3678;DHT22;1855;50.934;6.958;2023-10-19T09:19:40;18.10;99.90
3678;DHT22;1855;50.934;6.958;2023-10-19T09:22:07;18.20;99.90
3678;DHT22;1855;50.934;6.958;2023-10-19T09:24:42;18.40;99.90
3678;DHT22;1855;50.934;6.958;2023-10-19T09:27:12;18.30;99.90
3678;DHT22;1855;50.934;6.958;2023-10-19T09:29:39;18.30;99.90
3678;DHT22;1855;50.934;6.958;2023-10-19T09:32:07;18.20;99.90
3678;DHT22;1855;50.934;6.958;2023-10-19T09:34:35;18.00;99.90
3678;DHT22;1855;50.934;6.958;2023-10-19T09:37:03;18.00;99.90
3678;DHT22;1855;50.934;6.958;2023-10-19T09:39:30;18.10;99.90
3678;DHT22;1855;50.934;6.958;2023-10-19T09:42:01;18.40;99.90
3678;DHT22;1855;50.934;6.958;2023-10-19T09:44:34;18.60;99.30
3678;DHT22;1855;50.934;6.958;2023-10-19T09:47:07;18.80;98.10
3678;DHT22;1855;50.934;6.958;2023-10-19T09:49:36;19.00;97.40
3678;DHT22;1855;50.934;6.958;2023-10-19T09:52:03;19.30;96.10
3678;DHT22;1855;50.934;6.958;2023-10-19T09:54:39;19.50;95.80
3678;DHT22;1855;50.934;6.958;2023-10-19T09:57:13;19.70;95.50
3678;DHT22;1855;50.934;6.958;2023-10-19T09:59:46;19.70;94.90
3678;DHT22;1855;50.934;6.958;2023-10-19T10:02:15;19.50;94.70
3678;DHT22;1855;50.934;6.958;2023-10-19T10:04:44;19.40;94.80
3678;DHT22;1855;50.934;6.958;2023-10-19T10:07:11;19.50;95.20
3678;DHT22;1855;50.934;6.958;2023-10-19T10:09:40;19.30;94.80
3678;DHT22;1855;50.934;6.958;2023-10-19T10:12:19;19.10;95.10
3678;DHT22;1855;50.934;6.958;2023-10-19T10:15:03;18.90;95.30
3678;DHT22;1855;50.934;6.958;2023-10-19T10:17:33;18.80;95.80
3678;DHT22;1855;50.934;6.958;2023-10-19T10:20:29;18.80;96.10
3678;DHT22;1855;50.934;6.958;2023-10-19T10:23:20;18.80;95.80
3678;DHT22;1855;50.934;6.958;2023-10-19T10:25:50;18.90;96.40
3678;DHT22;1855;50.934;6.958;2023-10-19T10:28:19;19.00;95.70
3678;DHT22;1855;50.934;6.958;2023-10-19T10:31:09;19.40;95.80
3678;DHT22;1855;50.934;6.958;2023-10-19T10:33:39;19.80;94.30
3678;DHT22;1855;50.934;6.958;2023-10-19T10:36:07;20.10;94.20
3678;DHT22;1855;50.934;6.958;2023-10-19T10:38:35;20.40;93.70
3678;DHT22;1855;50.934;6.958;2023-10-19T10:41:02;20.60;92.20
3678;DHT22;1855;50.934;6.958;2023-10-19T10:43:28;20.40;92.20
3678;DHT22;1855;50.934;6.958;2023-10-19T10:46:03;20.10;92.20
3678;DHT22;1855;50.934;6.958;2023-10-19T10:48:31;19.90;93.00
3678;DHT22;1855;50.934;6.958;2023-10-19T10:50:58;19.80;93.40
3678;DHT22;1855;50.934;6.958;2023-10-19T10:53:25;19.70;94.30
3678;DHT22;1855;50.934;6.958;2023-10-19T10:55:52;19.60;93.40
3678;DHT22;1855;50.934;6.958;2023-10-19T10:58:19;19.60;93.40
3678;DHT22;1855;50.934;6.958;2023-10-19T11:00:47;19.50;93.60
3678;DHT22;1855;50.934;6.958;2023-10-19T11:03:16;19.40;94.20
3678;DHT22;1855;50.934;6.958;2023-10-19T11:05:44;19.40;94.00
3678;DHT22;1855;50.934;6.958;2023-10-19T11:08:13;19.30;94.00
3678;DHT22;1855;50.934;6.958;2023-10-19T11:10:41;19.20;94.40
3678;DHT22;1855;50.934;6.958;2023-10-19T11:13:11;19.10;94.80
3678;DHT22;1855;50.934;6.958;2023-10-19T11:15:39;19.00;95.00
3678;DHT22;1855;50.934;6.958;2023-10-19T11:18:28;19.00;95.30
3678;DHT22;1855;50.934;6.958;2023-10-19T11:20:57;18.90;95.40
3678;DHT22;1855;50.934;6.958;2023-10-19T11:23:38;18.90;95.60
3678;DHT22;1855;50.934;6.958;2023-10-19T11:26:06;18.90;95.30
3678;DHT22;1855;50.934;6.958;2023-10-19T11:28:34;18.90;95.30
3678;DHT22;1855;50.934;6.958;2023-10-19T11:31:11;18.90;96.00
3678;DHT22;1855;50.934;6.958;2023-10-19T11:33:39;18.80;95.40
3678;DHT22;1855;50.934;6.958;2023-10-19T11:36:08;18.80;95.00
3678;DHT22;1855;50.934;6.958;2023-10-19T11:38:39;18.70;95.90
3678;DHT22;1855;50.934;6.958;2023-10-19T11:41:05;18.60;95.60
3678;DHT22;1855;50.934;6.958;2023-10-19T11:43:33;18.60;95.80
3678;DHT22;1855;50.934;6.958;2023-10-19T11:46:00;18.70;95.90
3678;DHT22;1855;50.934;6.958;2023-10-19T11:48:27;18.60;95.90
3678;DHT22;1855;50.934;6.958;2023-10-19T11:50:54;18.60;96.20
3678;DHT22;1855;50.934;6.958;2023-10-19T11:53:22;18.60;95.60
3678;DHT22;1855;50.934;6.958;2023-10-19T11:55:49;18.50;95.60
3678;DHT22;1855;50.934;6.958;2023-10-19T11:58:17;18.50;95.90
3678;DHT22;1855;50.934;6.958;2023-10-19T12:00:44;18.50;95.70
3678;DHT22;1855;50.934;6.958;2023-10-19T12:03:12;18.50;95.20
3678;DHT22;1855;50.934;6.958;2023-10-19T12:05:39;18.50;95.70
3678;DHT22;1855;50.934;6.958;2023-10-19T12:08:07;18.40;95.70
3678;DHT22;1855;50.934;6.958;2023-10-19T12:10:35;18.30;96.40
3678;DHT22;1855;50.934;6.958;2023-10-19T12:13:04;18.30;96.60
3678;DHT22;1855;50.934;6.958;2023-10-19T12:15:31;18.20;97.10
3678;DHT22;1855;50.934;6.958;2023-10-19T12:17:59;18.10;97.10
3678;DHT22;1855;50.934;6.958;2023-10-19T12:20:27;18.00;97.40
3678;DHT22;1855;50.934;6.958;2023-10-19T12:22:56;18.00;97.80
3678;DHT22;1855;50.934;6.958;2023-10-19T12:25:24;17.90;98.00
3678;DHT22;1855;50.934;6.958;2023-10-19T12:27:57;17.90;98.10
3678;DHT22;1855;50.934;6.958;2023-10-19T12:30:25;17.80;98.00
3678;DHT22;1855;50.934;6.958;2023-10-19T12:32:59;17.80;98.10
3678;DHT22;1855;50.934;6.958;2023-10-19T12:35:26;17.80;98.10
3678;DHT22;1855;50.934;6.958;2023-10-19T12:38:07;17.80;97.90
3678;DHT22;1855;50.934;6.958;2023-10-19T12:40:41;17.80;98.50
3678;DHT22;1855;50.934;6.958;2023-10-19T12:43:09;17.70;98.30
3678;DHT22;1855;50.934;6.958;2023-10-19T12:45:38;17.70;98.40
3678;DHT22;1855;50.934;6.958;2023-10-19T12:48:05;17.60;98.80
3678;DHT22;1855;50.934;6.958;2023-10-19T12:50:34;17.60;99.00
3678;DHT22;1855;50.934;6.958;2023-10-19T12:53:01;17.60;98.90
3678;DHT22;1855;50.934;6.958;2023-10-19T12:55:29;17.60;99.40
3678;DHT22;1855;50.934;6.958;2023-10-19T12:57:56;17.60;99.90
3678;DHT22;1855;50.934;6.958;2023-10-19T13:00:26;17.50;99.90
3678;DHT22;1855;50.934;6.958;2023-10-19T13:02:54;17.60;99.90
3678;DHT22;1855;50.934;6.958;2023-10-19T13:05:26;17.60;99.90
3678;DHT22;1855;50.934;6.958;2023-10-19T13:07:54;17.50;99.90
3678;DHT22;1855;50.934;6.958;2023-10-19T13:10:27;17.50;99.90
3678;DHT22;1855;50.934;6.958;2023-10-19T13:12:54;17.50;99.90
3678;DHT22;1855;50.934;6.958;2023-10-19T13:15:21;17.40;99.90
3678;DHT22;1855;50.934;6.958;2023-10-19T13:17:53;17.30;99.90
3678;DHT22;1855;50.934;6.958;2023-10-19T13:20:19;17.30;99.90
3678;DHT22;1855;50.934;6.958;2023-10-19T13:22:46;17.20;99.90
3678;DHT22;1855;50.934;6.958;2023-10-19T13:25:13;17.20;99.90
3678;DHT22;1855;50.934;6.958;2023-10-19T13:27:43;17.10;99.90
3678;DHT22;1855;50.934;6.958;2023-10-19T13:30:11;17.00;99.90
3678;DHT22;1855;50.934;6.958;2023-10-19T13:32:40;16.90;99.90
3678;DHT22;1855;50.934;6.958;2023-10-19T13:35:09;16.90;99.90
3678;DHT22;1855;50.934;6.958;2023-10-19T13:37:36;16.80;99.90
3678;DHT22;1855;50.934;6.958;2023-10-19T13:40:04;16.70;99.90
3678;DHT22;1855;50.934;6.958;2023-10-19T13:42:32;16.60;99.90
3678;DHT22;1855;50.934;6.958;2023-10-19T13:45:00;16.60;99.90
3678;DHT22;1855;50.934;6.958;2023-10-19T13:47:26;16.50;99.90
3678;DHT22;1855;50.934;6.958;2023-10-19T13:49:53;16.50;99.90
3678;DHT22;1855;50.934;6.958;2023-10-19T13:52:21;16.40;99.90
3678;DHT22;1855;50.934;6.958;2023-10-19T13:54:48;16.40;99.90
3678;DHT22;1855;50.934;6.958;2023-10-19T13:57:15;16.30;99.90
3678;DHT22;1855;50.934;6.958;2023-10-19T13:59:42;16.30;99.90
3678;DHT22;1855;50.934;6.958;2023-10-19T14:02:08;16.30;99.90
3678;DHT22;1855;50.934;6.958;2023-10-19T14:04:36;16.20;99.90
3678;DHT22;1855;50.934;6.958;2023-10-19T14:07:02;16.20;99.90
3678;DHT22;1855;50.934;6.958;2023-10-19T14:09:31;16.20;99.90
3678;DHT22;1855;50.934;6.958;2023-10-19T14:11:58;16.20;99.90
3678;DHT22;1855;50.934;6.958;2023-10-19T14:14:27;16.20;99.90
3678;DHT22;1855;50.934;6.958;2023-10-19T14:16:54;16.20;99.90
3678;DHT22;1855;50.934;6.958;2023-10-19T14:19:21;16.10;99.90
3678;DHT22;1855;50.934;6.958;2023-10-19T14:21:47;16.20;99.90
3678;DHT22;1855;50.934;6.958;2023-10-19T14:24:14;16.20;99.90
3678;DHT22;1855;50.934;6.958;2023-10-19T14:26:44;16.20;99.90
3678;DHT22;1855;50.934;6.958;2023-10-19T14:29:12;16.10;99.90
3678;DHT22;1855;50.934;6.958;2023-10-19T14:31:39;16.10;99.90
3678;DHT22;1855;50.934;6.958;2023-10-19T14:34:06;16.10;99.90
3678;DHT22;1855;50.934;6.958;2023-10-19T14:36:33;16.00;99.90
3678;DHT22;1855;50.934;6.958;2023-10-19T14:39:00;15.90;99.90
3678;DHT22;1855;50.934;6.958;2023-10-19T14:41:28;15.90;99.90
3678;DHT22;1855;50.934;6.958;2023-10-19T14:43:56;15.90;99.90
3678;DHT22;1855;50.934;6.958;2023-10-19T14:46:25;15.90;99.90
3678;DHT22;1855;50.934;6.958;2023-10-19T14:48:52;15.90;99.90
3678;DHT22;1855;50.934;6.958;2023-10-19T14:51:19;16.00;99.90
3678;DHT22;1855;50.934;6.958;2023-10-19T14:53:46;16.00;99.90
3678;DHT22;1855;50.934;6.958;2023-10-19T14:56:12;16.10;99.90
3678;DHT22;1855;50.934;6.958;2023-10-19T14:58:40;16.10;99.90
3678;DHT22;1855;50.934;6.958;2023-10-19T15:01:09;16.20;99.90
3678;DHT22;1855;50.934;6.958;2023-10-19T15:03:40;16.20;99.90
3678;DHT22;1855;50.934;6.958;2023-10-19T15:06:07;16.20;99.90
3678;DHT22;1855;50.934;6.958;2023-10-19T15:08:34;16.20;99.90
3678;DHT22;1855;50.934;6.958;2023-10-19T15:11:00;16.20;99.90
3678;DHT22;1855;50.934;6.958;2023-10-19T15:13:27;16.20;99.90
3678;DHT22;1855;50.934;6.958;2023-10-19T15:15:55;16.20;99.90
3678;DHT22;1855;50.934;6.958;2023-10-19T15:18:23;16.30;99.90
3678;DHT22;1855;50.934;6.958;2023-10-19T15:20:50;16.50;99.90
3678;DHT22;1855;50.934;6.958;2023-10-19T15:23:17;16.60;99.90
3678;DHT22;1855;50.934;6.958;2023-10-19T15:25:43;16.60;99.90
3678;DHT22;1855;50.934;6.958;2023-10-19T15:28:10;16.60;99.90
3678;DHT22;1855;50.934;6.958;2023-10-19T15:30:37;16.60;99.90
3678;DHT22;1855;50.934;6.958;2023-10-19T15:33:05;16.50;99.90
3678;DHT22;1855;50.934;6.958;2023-10-19T15:35:34;16.50;99.90
3678;DHT22;1855;50.934;6.958;2023-10-19T15:38:01;16.50;99.90
3678;DHT22;1855;50.934;6.958;2023-10-19T15:40:30;16.40;99.90
3678;DHT22;1855;50.934;6.958;2023-10-19T15:42:56;16.40;99.90
3678;DHT22;1855;50.934;6.958;2023-10-19T15:45:24;16.40;99.90
3678;DHT22;1855;50.934;6.958;2023-10-19T15:47:52;16.40;99.90
3678;DHT22;1855;50.934;6.958;2023-10-19T15:50:20;16.50;99.90
3678;DHT22;1855;50.934;6.958;2023-10-19T15:52:48;16.60;99.90
3678;DHT22;1855;50.934;6.958;2023-10-19T15:55:16;16.70;99.90
3678;DHT22;1855;50.934;6.958;2023-10-19T15:57:46;16.70;99.90
3678;DHT22;1855;50.934;6.958;2023-10-19T16:00:16;16.70;99.90
3678;DHT22;1855;50.934;6.958;2023-10-19T16:02:43;16.70;99.90
3678;DHT22;1855;50.934;6.958;2023-10-19T16:05:11;16.60;99.90
3678;DHT22;1855;50.934;6.958;2023-10-19T16:07:39;16.50;99.90
3678;DHT22;1855;50.934;6.958;2023-10-19T16:10:08;16.40;99.90
3678;DHT22;1855;50.934;6.958;2023-10-19T16:12:38;16.30;99.90